createdAt,value
2023-02-17T00:01:17.591Z,-0.50
2023-02-17T00:03:48.042Z,-0.50
2023-02-17T00:06:17.647Z,-0.50
2023-02-17T00:08:45.531Z,-0.50
2023-02-17T00:11:13.660Z,-0.50
2023-02-17T00:13:40.838Z,-0.50
2023-02-17T00:16:11.049Z,-0.50
2023-02-17T00:18:38.014Z,-0.50
2023-02-17T00:21:18.586Z,-0.50
2023-02-17T00:23:47.553Z,-0.60
2023-02-17T00:26:17.080Z,-0.50
2023-02-17T00:28:44.605Z,-0.60
2023-02-17T00:31:18.729Z,-0.50
2023-02-17T00:33:46.409Z,-0.60
2023-02-17T00:36:18.247Z,-0.80
2023-02-17T00:38:46.636Z,-0.60
2023-02-17T00:41:13.632Z,-0.70
2023-02-17T00:43:40.501Z,-0.60
2023-02-17T00:46:08.122Z,-0.60
2023-02-17T00:48:35.219Z,-0.70
2023-02-17T00:51:02.133Z,-0.60
2023-02-17T00:53:29.230Z,-0.70
2023-02-17T00:55:56.399Z,-0.70
2023-02-17T00:58:23.788Z,-0.70
2023-02-17T01:00:50.805Z,-0.80
2023-02-17T01:03:19.113Z,-0.60
2023-02-17T01:05:49.705Z,-0.60
2023-02-17T01:08:17.825Z,-0.60
2023-02-17T01:10:47.321Z,-0.50
2023-02-17T01:13:16.646Z,-0.60
2023-02-17T01:15:48.065Z,-0.50
2023-02-17T01:18:16.429Z,-0.60
2023-02-17T01:20:43.616Z,-0.60
2023-02-17T01:23:11.995Z,-0.60
2023-02-17T01:25:42.080Z,-0.70
2023-02-17T01:28:12.542Z,-0.60
2023-02-17T01:30:39.488Z,-0.60
2023-02-17T01:33:06.430Z,-0.60
2023-02-17T01:35:34.867Z,-0.60
2023-02-17T01:38:01.734Z,-0.60
2023-02-17T01:40:28.700Z,-0.70
2023-02-17T01:42:55.703Z,-0.70
2023-02-17T01:45:22.754Z,-0.60
2023-02-17T01:48:12.794Z,-0.70
2023-02-17T01:50:47.262Z,-0.70
2023-02-17T01:53:21.698Z,-0.60
2023-02-17T01:55:49.310Z,-0.80
2023-02-17T01:58:21.074Z,-0.80
2023-02-17T02:00:50.474Z,-0.90
2023-02-17T02:05:45.365Z,-0.80
2023-02-17T02:08:13.447Z,-0.70
2023-02-17T02:10:40.478Z,-0.70
2023-02-17T02:13:08.195Z,-0.70
2023-02-17T02:15:52.656Z,-0.70
2023-02-17T02:18:44.649Z,-0.70
2023-02-17T02:22:21.785Z,-0.70
2023-02-17T02:25:27.021Z,-0.70
2023-02-17T02:28:28.986Z,-0.70
2023-02-17T02:31:34.925Z,-0.60
2023-02-17T02:34:25.989Z,-0.70
2023-02-17T02:37:25.527Z,-0.70
2023-02-17T02:39:55.308Z,-0.80
2023-02-17T02:42:24.485Z,-0.80
2023-02-17T02:44:51.821Z,-0.80
2023-02-17T02:47:45.187Z,-0.90
2023-02-17T02:50:18.075Z,-0.80
2023-02-17T02:53:05.588Z,-0.80
2023-02-17T02:56:00.448Z,-0.90
2023-02-17T02:59:08.507Z,-0.90
2023-02-17T03:01:51.866Z,-1.00
2023-02-17T03:04:36.216Z,-1.00
2023-02-17T03:07:26.407Z,-0.90
2023-02-17T03:09:57.543Z,-1.00
2023-02-17T03:12:25.751Z,-1.00
2023-02-17T03:15:23.070Z,-1.10
2023-02-17T03:17:50.063Z,-1.10
2023-02-17T03:20:17.225Z,-1.00
2023-02-17T03:22:47.595Z,-1.10
2023-02-17T03:25:15.630Z,-1.10
2023-02-17T03:27:42.709Z,-1.20
2023-02-17T03:30:10.499Z,-1.10
2023-02-17T03:32:37.638Z,-1.10
2023-02-17T03:35:05.462Z,-1.20
2023-02-17T03:37:32.580Z,-1.20
2023-02-17T03:39:59.490Z,-1.10
2023-02-17T03:42:26.447Z,-1.10
2023-02-17T03:44:53.477Z,-1.20
2023-02-17T03:47:20.360Z,-1.10
2023-02-17T03:49:47.271Z,-1.10
2023-02-17T03:52:14.180Z,-1.10
2023-02-17T03:54:41.180Z,-1.10
2023-02-17T03:57:08.431Z,-1.10
2023-02-17T03:59:35.848Z,-1.10
2023-02-17T04:02:03.692Z,-1.10
2023-02-17T04:04:30.673Z,-1.00
2023-02-17T04:06:57.769Z,-1.10
2023-02-17T04:09:24.813Z,-1.10
2023-02-17T04:12:10.283Z,-0.90
2023-02-17T04:14:37.345Z,-0.90
2023-02-17T04:17:04.293Z,-0.90
2023-02-17T04:21:58.613Z,-0.90
2023-02-17T04:26:52.950Z,-1.00
2023-02-17T04:29:19.829Z,-0.80
2023-02-17T04:31:46.754Z,-0.90
2023-02-17T04:34:13.604Z,-0.90
2023-02-17T04:36:40.549Z,-0.90
2023-02-17T04:39:07.530Z,-0.90
2023-02-17T04:41:34.461Z,-0.90
2023-02-17T04:44:01.359Z,-0.80
2023-02-17T04:46:28.457Z,-0.90
2023-02-17T04:48:55.520Z,-0.90
2023-02-17T04:51:22.574Z,-0.90
2023-02-17T04:53:49.473Z,-0.80
2023-02-17T04:56:16.664Z,-0.90
2023-02-17T04:58:43.995Z,-0.90
2023-02-17T05:01:11.080Z,-0.80
2023-02-17T05:03:38.061Z,-0.90
2023-02-17T05:06:05.683Z,-0.70
2023-02-17T05:08:32.825Z,-0.80
2023-02-17T05:10:59.787Z,-0.70
2023-02-17T05:13:27.606Z,-0.80
2023-02-17T05:15:54.510Z,-0.80
2023-02-17T05:18:21.429Z,-0.70
2023-02-17T05:20:48.353Z,-0.70
2023-02-17T05:23:15.297Z,-0.70
2023-02-17T05:25:42.271Z,-0.70
2023-02-17T05:28:09.289Z,-0.70
2023-02-17T05:30:36.228Z,-0.50
2023-02-17T05:33:03.170Z,-0.60
2023-02-17T05:35:30.166Z,-0.60
2023-02-17T05:37:57.066Z,2.70
2023-02-17T05:40:23.985Z,-0.50
2023-02-17T05:42:50.914Z,-0.50
2023-02-17T05:45:17.953Z,-0.40
2023-02-17T05:47:44.830Z,-0.60
2023-02-17T05:50:12.100Z,-0.60
2023-02-17T05:52:39.020Z,-0.40
2023-02-17T05:55:06.610Z,-0.50
2023-02-17T05:57:33.552Z,-0.40
2023-02-17T06:00:00.549Z,-0.40
2023-02-17T06:02:27.506Z,2.90
2023-02-17T06:04:54.708Z,-0.30
2023-02-17T06:07:21.811Z,-0.30
2023-02-17T06:09:48.729Z,-0.60
2023-02-17T06:12:15.864Z,-0.30
2023-02-17T06:14:42.954Z,-0.30
2023-02-17T06:17:10.460Z,-0.30
2023-02-17T06:19:37.355Z,-0.10
2023-02-17T06:22:04.448Z,2.30
2023-02-17T06:24:31.641Z,-0.20
2023-02-17T06:26:58.597Z,-0.10
2023-02-17T06:29:25.547Z,-0.10
2023-02-17T06:31:52.541Z,-0.10
2023-02-17T06:34:19.610Z,-0.10
2023-02-17T06:36:46.631Z,0.00
2023-02-17T06:39:13.506Z,0.10
2023-02-17T06:41:40.399Z,0.10
2023-02-17T06:44:07.289Z,0.20
2023-02-17T06:46:34.377Z,0.20
2023-02-17T06:49:01.538Z,0.20
2023-02-17T06:51:29.426Z,0.30
2023-02-17T06:53:56.799Z,0.30
2023-02-17T06:56:23.860Z,0.40
2023-02-17T06:58:51.345Z,0.40
2023-02-17T07:01:22.758Z,0.50
2023-02-17T07:03:49.878Z,0.60
2023-02-17T07:06:16.832Z,3.10
2023-02-17T07:08:43.921Z,0.70
2023-02-17T07:11:13.644Z,0.70
2023-02-17T07:13:41.242Z,0.80
2023-02-17T07:16:10.509Z,0.80
2023-02-17T07:18:38.128Z,0.90
2023-02-17T07:21:06.648Z,0.90
2023-02-17T07:23:33.931Z,1.00
2023-02-17T07:26:06.407Z,1.00
2023-02-17T07:28:33.476Z,1.00
2023-02-17T07:31:09.622Z,1.10
2023-02-17T07:33:37.373Z,1.10
2023-02-17T07:36:13.554Z,1.20
2023-02-17T07:38:41.705Z,1.20
2023-02-17T07:41:12.459Z,1.30
2023-02-17T07:43:39.463Z,1.30
2023-02-17T07:46:09.425Z,1.40
2023-02-17T07:48:36.932Z,1.50
2023-02-17T07:51:13.603Z,1.50
2023-02-17T07:53:40.633Z,1.60
2023-02-17T07:56:11.215Z,1.70
2023-02-17T07:58:41.156Z,1.70
2023-02-17T08:01:15.542Z,1.70
2023-02-17T08:03:43.250Z,1.80
2023-02-17T08:06:23.290Z,1.80
2023-02-17T08:09:10.224Z,1.80
2023-02-17T08:11:56.426Z,1.90
2023-02-17T08:14:25.707Z,1.90
2023-02-17T08:16:53.263Z,2.00
2023-02-17T08:19:20.337Z,2.00
2023-02-17T08:21:47.761Z,2.10
2023-02-17T08:24:16.324Z,3.80
2023-02-17T08:26:43.468Z,2.30
2023-02-17T08:29:10.480Z,2.30
2023-02-17T08:31:38.115Z,2.30
2023-02-17T08:34:08.718Z,2.40
2023-02-17T08:36:37.483Z,2.50
2023-02-17T08:39:10.410Z,2.60
2023-02-17T08:41:39.054Z,2.70
2023-02-17T08:44:15.735Z,2.80
2023-02-17T08:46:44.578Z,2.90
2023-02-17T08:49:11.570Z,5.40
2023-02-17T08:51:40.160Z,2.90
2023-02-17T08:54:10.367Z,3.00
2023-02-17T08:56:39.089Z,3.10
2023-02-17T08:59:08.249Z,3.00
2023-02-17T09:01:36.174Z,3.20
2023-02-17T09:04:05.614Z,3.20
2023-02-17T09:06:41.028Z,3.30
2023-02-17T09:09:11.940Z,6.40
2023-02-17T09:11:39.409Z,3.50
2023-02-17T09:14:07.471Z,3.70
2023-02-17T09:16:35.158Z,3.80
2023-02-17T09:19:02.269Z,3.80
2023-02-17T09:21:29.383Z,3.90
2023-02-17T09:23:56.468Z,4.00
2023-02-17T09:26:23.581Z,6.20
2023-02-17T09:28:50.578Z,4.00
2023-02-17T09:31:26.691Z,4.10
2023-02-17T09:33:55.137Z,4.20
2023-02-17T09:36:29.209Z,4.30
2023-02-17T09:38:57.151Z,4.40
2023-02-17T09:41:37.999Z,4.40
2023-02-17T09:44:21.140Z,4.50
2023-02-17T09:47:07.281Z,4.60
2023-02-17T09:49:49.614Z,4.70
2023-02-17T09:52:45.605Z,4.80
2023-02-17T09:55:37.767Z,4.90
2023-02-17T09:58:34.828Z,5.20
2023-02-17T10:01:08.831Z,5.30
2023-02-17T10:03:48.709Z,5.60
2023-02-17T10:06:38.687Z,6.20
2023-02-17T10:09:24.665Z,8.90
2023-02-17T10:12:02.244Z,5.80
2023-02-17T10:14:33.722Z,5.80
2023-02-17T10:17:08.551Z,5.70
2023-02-17T10:19:47.300Z,5.70
2023-02-17T10:22:23.470Z,8.00
2023-02-17T10:24:50.594Z,7.80
2023-02-17T10:27:57.954Z,5.50
2023-02-17T10:30:34.771Z,5.50
2023-02-17T10:33:31.838Z,5.50
2023-02-17T10:36:10.953Z,5.50
2023-02-17T10:38:52.248Z,5.50
2023-02-17T10:41:27.722Z,5.60
2023-02-17T10:43:55.208Z,5.60
2023-02-17T10:46:29.541Z,5.70
2023-02-17T10:48:59.803Z,8.10
2023-02-17T10:51:30.418Z,5.70
2023-02-17T10:54:06.561Z,5.80
2023-02-17T10:56:44.196Z,5.80
2023-02-17T10:59:37.853Z,5.80
2023-02-17T11:02:42.711Z,5.80
2023-02-17T11:05:30.483Z,5.80
2023-02-17T11:08:20.141Z,7.40
2023-02-17T11:11:02.848Z,6.40
2023-02-17T11:13:43.035Z,5.80
2023-02-17T11:16:26.498Z,5.80
2023-02-17T11:18:55.506Z,8.10
2023-02-17T11:21:22.852Z,5.80
2023-02-17T11:23:59.497Z,5.80
2023-02-17T11:26:31.448Z,7.40
2023-02-17T11:29:21.420Z,5.90
2023-02-17T11:32:10.522Z,5.90
2023-02-17T11:34:40.628Z,6.00
2023-02-17T11:37:13.513Z,6.00
2023-02-17T11:39:47.006Z,8.00
2023-02-17T11:42:26.407Z,6.00
2023-02-17T11:44:56.857Z,5.90
2023-02-17T11:47:48.634Z,5.90
2023-02-17T11:50:49.360Z,5.90
2023-02-17T11:53:25.261Z,5.90
2023-02-17T11:56:20.915Z,5.90
2023-02-17T11:59:16.847Z,5.80
2023-02-17T12:02:07.122Z,5.80
2023-02-17T12:04:59.955Z,5.90
2023-02-17T12:08:12.239Z,5.90
2023-02-17T12:10:57.220Z,5.80
2023-02-17T12:13:58.178Z,5.80
2023-02-17T12:16:55.960Z,5.70
2023-02-17T12:19:40.994Z,5.70
2023-02-17T12:22:41.264Z,5.70
2023-02-17T12:25:28.975Z,5.70
2023-02-17T12:28:30.760Z,5.70
2023-02-17T12:31:32.298Z,5.60
2023-02-17T12:34:17.843Z,5.60
2023-02-17T12:36:47.106Z,5.60
2023-02-17T12:39:24.740Z,5.60
2023-02-17T12:42:22.490Z,5.50
2023-02-17T12:45:16.831Z,5.50
2023-02-17T12:48:07.375Z,5.60
2023-02-17T12:50:55.049Z,5.50
2023-02-17T12:53:55.569Z,5.60
2023-02-17T12:56:25.525Z,5.60
2023-02-17T12:58:57.578Z,5.60
2023-02-17T13:01:29.676Z,8.20
2023-02-17T13:03:59.926Z,5.60
2023-02-17T13:06:37.448Z,5.70
2023-02-17T13:09:25.591Z,5.70
2023-02-17T13:11:52.527Z,5.70
2023-02-17T13:14:49.495Z,5.70
2023-02-17T13:17:40.012Z,5.70
2023-02-17T13:20:09.753Z,5.70
2023-02-17T13:22:42.255Z,5.70
2023-02-17T13:25:32.965Z,5.70
2023-02-17T13:28:02.975Z,5.60
2023-02-17T13:30:40.987Z,5.60
2023-02-17T13:33:22.420Z,6.00
2023-02-17T13:35:49.902Z,5.60
2023-02-17T13:38:33.157Z,5.60
2023-02-17T13:41:04.465Z,5.60
2023-02-17T13:43:40.999Z,5.60
2023-02-17T13:46:26.169Z,5.60
2023-02-17T13:49:06.386Z,5.60
2023-02-17T13:51:34.271Z,5.60
2023-02-17T13:54:09.858Z,5.60
2023-02-17T13:56:37.073Z,5.60
2023-02-17T13:59:17.989Z,5.60
2023-02-17T14:01:47.030Z,5.70
2023-02-17T14:04:23.384Z,5.60
2023-02-17T14:06:53.498Z,8.00
2023-02-17T14:09:28.118Z,7.50
2023-02-17T14:11:55.956Z,5.70
2023-02-17T14:14:28.899Z,5.40
2023-02-17T14:17:26.232Z,5.60
2023-02-17T14:19:53.239Z,5.60
2023-02-17T14:22:34.016Z,5.60
2023-02-17T14:25:08.331Z,5.60
2023-02-17T14:27:50.084Z,5.60
2023-02-17T14:30:29.449Z,5.60
2023-02-17T14:33:22.536Z,5.50
2023-02-17T14:36:03.847Z,5.30
2023-02-17T14:38:38.124Z,5.40
2023-02-17T14:41:09.266Z,5.40
2023-02-17T14:43:37.577Z,5.40
2023-02-17T14:46:05.013Z,7.20
2023-02-17T14:48:32.175Z,5.30
2023-02-17T14:51:01.214Z,8.40
2023-02-17T14:53:35.518Z,5.30
2023-02-17T14:56:30.464Z,5.20
2023-02-17T14:58:57.493Z,5.20
2023-02-17T15:01:26.176Z,5.40
2023-02-17T15:03:54.304Z,5.20
2023-02-17T15:06:32.758Z,5.20
2023-02-17T15:09:01.412Z,5.10
2023-02-17T15:11:35.480Z,5.10
2023-02-17T15:14:03.231Z,6.00
2023-02-17T15:16:30.598Z,5.00
2023-02-17T15:18:58.003Z,5.00
2023-02-17T15:21:30.821Z,4.90
2023-02-17T15:24:00.274Z,4.90
2023-02-17T15:26:30.376Z,5.50
2023-02-17T15:28:58.207Z,4.90
2023-02-17T15:31:33.977Z,4.90
2023-02-17T15:34:02.527Z,4.80
2023-02-17T15:36:29.481Z,5.60
2023-02-17T15:38:56.470Z,4.80
2023-02-17T15:41:27.251Z,4.80
2023-02-17T15:43:57.055Z,4.80
2023-02-17T15:46:31.660Z,4.80
2023-02-17T15:48:58.944Z,4.80
2023-02-17T15:51:25.978Z,4.70
2023-02-17T15:53:52.929Z,6.40
2023-02-17T15:56:24.284Z,7.90
2023-02-17T15:58:51.974Z,4.70
2023-02-17T16:01:35.112Z,4.70
2023-02-17T16:04:02.352Z,4.60
2023-02-17T16:06:30.053Z,4.60
2023-02-17T16:08:58.758Z,4.60
2023-02-17T16:11:27.380Z,4.60
2023-02-17T16:13:55.097Z,7.10
2023-02-17T16:16:32.769Z,7.30
2023-02-17T16:19:00.922Z,4.50
2023-02-17T16:21:28.348Z,4.50
2023-02-17T16:23:59.613Z,4.50
2023-02-17T16:26:33.613Z,4.50
2023-02-17T16:29:16.557Z,5.70
2023-02-17T16:31:43.987Z,4.50
2023-02-17T16:34:23.243Z,7.10
2023-02-17T16:36:57.096Z,4.50
2023-02-17T16:39:24.026Z,6.50
2023-02-17T16:41:50.936Z,4.40
2023-02-17T16:44:21.244Z,4.40
2023-02-17T16:46:54.359Z,4.40
2023-02-17T16:49:34.217Z,4.40
2023-02-17T16:52:07.548Z,4.40
2023-02-17T16:54:35.761Z,4.30
2023-02-17T16:57:03.470Z,4.30
2023-02-17T16:59:30.377Z,6.00
2023-02-17T17:01:57.641Z,4.30
2023-02-17T17:04:24.652Z,4.20
2023-02-17T17:06:52.558Z,4.20
2023-02-17T17:09:23.455Z,4.20
2023-02-17T17:11:50.969Z,4.20
2023-02-17T17:14:18.963Z,4.20
2023-02-17T17:16:54.819Z,6.90
2023-02-17T17:19:22.454Z,6.60
2023-02-17T17:21:49.639Z,7.10
2023-02-17T17:24:17.005Z,4.20
2023-02-17T17:26:47.224Z,4.20
2023-02-17T17:29:17.222Z,4.10
2023-02-17T17:31:45.189Z,4.20
2023-02-17T17:34:12.238Z,4.20
2023-02-17T17:36:43.281Z,7.00
2023-02-17T17:39:20.185Z,6.60
2023-02-17T17:41:47.765Z,4.70
2023-02-17T17:44:15.079Z,6.40
2023-02-17T17:46:42.194Z,6.90
2023-02-17T17:49:12.902Z,4.10
2023-02-17T17:51:40.856Z,4.30
2023-02-17T17:54:08.732Z,4.10
2023-02-17T17:56:39.659Z,4.10
2023-02-17T17:59:06.734Z,4.10
2023-02-17T18:01:34.056Z,6.20
2023-02-17T18:04:01.551Z,7.00
2023-02-17T18:06:40.639Z,4.10
2023-02-17T18:09:25.708Z,4.20
2023-02-17T18:12:01.506Z,4.20
2023-02-17T18:14:29.371Z,4.20
2023-02-17T18:16:57.708Z,4.20
2023-02-17T18:19:24.693Z,4.10
2023-02-17T18:21:51.666Z,4.10
2023-02-17T18:24:18.621Z,6.20
2023-02-17T18:26:45.501Z,4.10
2023-02-17T18:29:12.576Z,6.00
2023-02-17T18:31:39.759Z,5.00
2023-02-17T18:34:06.856Z,6.40
2023-02-17T18:36:33.815Z,5.20
2023-02-17T18:39:00.782Z,4.00
2023-02-17T18:41:32.113Z,4.10
2023-02-17T18:44:02.321Z,4.00
2023-02-17T18:46:29.834Z,7.10
2023-02-17T18:48:57.451Z,4.10
2023-02-17T18:51:27.519Z,6.70
2023-02-17T18:53:59.658Z,4.10
2023-02-17T18:56:33.078Z,4.10
2023-02-17T18:59:00.309Z,6.00
2023-02-17T19:01:32.789Z,7.10
2023-02-17T19:03:59.892Z,4.00
2023-02-17T19:06:31.816Z,3.90
2023-02-17T19:09:00.574Z,4.10
2023-02-17T19:11:28.089Z,6.60
2023-02-17T19:13:55.210Z,4.00
2023-02-17T19:16:28.172Z,4.10
2023-02-17T19:18:56.717Z,4.00
2023-02-17T19:21:24.224Z,6.50
2023-02-17T19:23:51.929Z,4.10
2023-02-17T19:26:20.050Z,6.80
2023-02-17T19:28:47.122Z,4.00
2023-02-17T19:31:20.582Z,4.10
2023-02-17T19:33:47.756Z,4.10
2023-02-17T19:36:19.414Z,5.30
2023-02-17T19:38:49.181Z,6.70
2023-02-17T19:41:18.363Z,4.10
2023-02-17T19:43:46.708Z,3.90
2023-02-17T19:46:25.726Z,4.00
2023-02-17T19:48:52.729Z,4.10
2023-02-17T19:51:20.142Z,6.60
2023-02-17T19:53:47.490Z,4.00
2023-02-17T19:56:26.584Z,7.30
2023-02-17T19:58:54.513Z,4.10
2023-02-17T20:01:28.069Z,4.10
2023-02-17T20:03:57.655Z,4.00
2023-02-17T20:06:29.544Z,4.10
2023-02-17T20:09:03.573Z,4.10
2023-02-17T20:11:32.222Z,4.00
2023-02-17T20:14:01.039Z,4.10
2023-02-17T20:16:29.447Z,4.00
2023-02-17T20:18:56.702Z,4.00
2023-02-17T20:21:29.050Z,6.80
2023-02-17T20:23:57.556Z,4.10
2023-02-17T20:26:29.832Z,4.00
2023-02-17T20:28:57.498Z,6.20
2023-02-17T20:31:25.744Z,4.10
2023-02-17T20:33:53.213Z,6.80
2023-02-17T20:36:22.176Z,1.80
2023-02-17T20:38:50.193Z,6.60
2023-02-17T20:41:19.746Z,4.90
2023-02-17T20:43:46.988Z,7.10
2023-02-17T20:46:27.573Z,6.30
2023-02-17T20:48:55.657Z,4.90
2023-02-17T20:51:23.146Z,6.80
2023-02-17T20:53:50.188Z,3.80
2023-02-17T20:56:22.302Z,4.10
2023-02-17T20:58:50.742Z,4.40
2023-02-17T21:01:19.885Z,6.30
2023-02-17T21:03:47.190Z,4.30
2023-02-17T21:06:34.649Z,4.20
2023-02-17T21:09:12.013Z,1.80
2023-02-17T21:11:39.334Z,4.30
2023-02-17T21:14:06.561Z,4.30
2023-02-17T21:16:33.543Z,4.30
2023-02-17T21:19:01.734Z,4.30
2023-02-17T21:21:30.418Z,4.30
2023-02-17T21:23:58.857Z,7.30
2023-02-17T21:26:27.480Z,7.20
2023-02-17T21:28:54.870Z,4.30
2023-02-17T21:31:21.908Z,4.40
2023-02-17T21:33:48.941Z,6.50
2023-02-17T21:36:17.877Z,4.40
2023-02-17T21:38:45.789Z,4.40
2023-02-17T21:41:20.902Z,4.40
2023-02-17T21:44:06.794Z,4.40
2023-02-17T21:46:34.554Z,4.30
2023-02-17T21:49:02.178Z,4.30
2023-02-17T21:51:30.013Z,4.40
2023-02-17T21:53:57.976Z,4.40
2023-02-17T21:56:26.101Z,5.20
2023-02-17T21:58:55.257Z,4.30
2023-02-17T22:01:25.067Z,6.70
2023-02-17T22:03:52.778Z,7.20
2023-02-17T22:06:29.311Z,4.40
2023-02-17T22:08:57.791Z,4.50
2023-02-17T22:11:31.841Z,4.40
2023-02-17T22:14:02.547Z,5.50
2023-02-17T22:16:35.109Z,7.20
2023-02-17T22:19:03.508Z,4.40
2023-02-17T22:21:30.544Z,4.30
2023-02-17T22:23:59.302Z,4.40
2023-02-17T22:26:27.829Z,5.20
2023-02-17T22:28:55.365Z,4.50
2023-02-17T22:31:26.635Z,4.50
2023-02-17T22:33:56.021Z,4.50
2023-02-17T22:36:24.358Z,4.50
2023-02-17T22:38:52.580Z,4.30
2023-02-17T22:41:23.300Z,4.50
2023-02-17T22:43:51.533Z,7.70
2023-02-17T22:46:21.603Z,4.60
2023-02-17T22:48:51.319Z,4.70
2023-02-17T22:51:25.616Z,4.70
2023-02-17T22:53:52.622Z,4.70
2023-02-17T22:56:20.630Z,7.80
2023-02-17T22:58:50.535Z,7.10
2023-02-17T23:01:20.808Z,7.30
2023-02-17T23:03:52.931Z,7.70
2023-02-17T23:06:25.168Z,4.70
2023-02-17T23:08:53.544Z,4.70
2023-02-17T23:11:45.454Z,7.80
2023-02-17T23:14:13.964Z,4.80
2023-02-17T23:16:41.247Z,5.00
2023-02-17T23:19:12.497Z,5.60
2023-02-17T23:21:48.460Z,5.10
2023-02-17T23:24:20.504Z,5.10
2023-02-17T23:26:47.966Z,4.00
2023-02-17T23:29:16.512Z,4.90
2023-02-17T23:31:44.067Z,5.70
2023-02-17T23:34:14.537Z,8.40
2023-02-17T23:36:43.728Z,8.10
2023-02-17T23:39:11.658Z,8.10
2023-02-17T23:41:39.824Z,8.20
2023-02-17T23:44:09.773Z,6.20
2023-02-17T23:46:40.380Z,6.30
2023-02-17T23:49:07.749Z,6.60
2023-02-17T23:51:34.791Z,6.80
2023-02-17T23:54:01.772Z,9.50
2023-02-17T23:56:32.615Z,7.20
2023-02-17T23:59:00.702Z,9.70
